Time;durP1;ratioP1;P1;durP2;ratioP2;P2;SDS_P1;SDS_P2;PMS_P1;PMS_P2;Temp;Humidity;BMP_temperature;BMP_pressure;BME280_temperature;BME280_humidity;BME280_pressure;Samples;Min_cycle;Max_cycle;Signal;HPM_P1;HPM_P2
2021/12/30 00:30:09;;;;;;;15.23;12.30;;;;;;;14.07;69.84;100451.53;144992;648;6002;-83
2021/12/30 00:33:00;;;;;;;17.02;12.98;;;;;;;14.07;69.61;100455.91;144992;563;6002;-88
2021/12/30 00:39:32;;;;;;;13.77;10.75;;;;;;;13.41;71.54;100469.88;144992;617;6004;-82
2021/12/30 00:46:23;;;;;;;14.68;10.65;;;;;;;13.68;69.62;100485.84;144992;702;6002;-82
2021/12/30 02:21:32;;;;;;;4.47;3.35;;;;;;;13.28;65.44;100503.50;144992;607;6004;-83
2021/12/30 02:24:30;;;;;;;3.90;3.30;;;;;;;13.31;62.50;100501.81;144992;587;6004;-83
2021/12/30 02:27:42;;;;;;;4.45;3.75;;;;;;;13.39;65.85;100496.75;144992;606;6004;-87
2021/12/30 02:34:16;;;;;;;3.72;3.33;;;;;;;13.27;65.58;100505.25;144992;602;6004;-86
2021/12/30 02:36:52;;;;;;;3.72;3.08;;;;;;;13.16;63.73;100493.78;144992;572;6004;-85
2021/12/30 02:39:50;;;;;;;4.22;3.55;;;;;;;13.25;65.53;100492.19;144992;623;6004;-86
2021/12/30 02:43:14;;;;;;;;;;;;;;;;;;;;;
2021/12/30 02:45:56;;;;;;;5.05;3.65;;;;;;;13.02;64.30;100494.44;144992;624;6002;-85
2021/12/30 02:49:07;;;;;;;5.35;3.65;;;;;;;13.09;63.92;100484.09;144992;591;6002;-86
2021/12/30 02:52:05;;;;;;;4.78;3.67;;;;;;;13.25;65.75;100499.13;144992;744;6004;-80
2021/12/30 02:54:46;;;;;;;5.35;3.67;;;;;;;13.18;65.32;100492.94;144992;572;6004;-82
2021/12/30 02:57:39;;;;;;;4.72;3.87;;;;;;;13.02;64.30;100491.81;144992;590;6004;-87
2021/12/30 03:00:17;;;;;;;5.93;3.65;;;;;;;13.31;65.51;100508.78;144992;697;6002;-80
2021/12/30 03:44:45;;;;;;;3.87;2.08;;;;;;;13.33;61.65;100538.37;144992;712;6002;-82
2021/12/30 03:47:31;;;;;;;2.83;1.70;;;;;;;13.09;60.21;100523.19;144992;625;6002;-87
2021/12/30 03:50:32;;;;;;;1.98;1.60;;;;;;;13.29;58.82;100531.34;144992;574;6002;-87
2021/12/30 03:53:18;;;;;;;;;;;;;;;;;;;;;
2021/12/30 03:56:31;;;;;;;2.45;1.80;;;;;;;13.20;61.24;100526.84;144993;605;6000;-83
2021/12/30 03:59:28;;;;;;;2.42;1.73;;;;;;;12.96;57.78;100529.94;144993;623;6000;-86
2021/12/30 04:02:30;;;;;;;2.72;2.17;;;;;;;13.24;60.96;100523.44;144993;567;6000;-87
2021/12/30 04:05:17;;;;;;;;;;;;;;;;;;;;;
2021/12/30 04:08:07;;;;;;;2.62;1.90;;;;;;;13.09;58.38;100528.41;144993;575;6000;-85
2021/12/30 04:26:20;;;;;;;1.60;1.00;;;;;;;12.99;55.17;100538.66;144993;595;6002;-86
2021/12/30 04:28:47;;;;;;;3.33;1.20;;;;;;;12.95;54.59;100544.69;144993;585;6002;-87
2021/12/30 04:31:14;;;;;;;2.15;1.12;;;;;;;13.03;54.63;100548.31;144993;564;6002;-81
2021/12/30 04:33:44;;;;;;;1.73;1.10;;;;;;;12.88;54.27;100535.00;144993;574;6002;-87
2021/12/30 04:36:11;;;;;;;2.17;1.00;;;;;;;12.76;54.68;100546.09;144993;593;6002;-89
2021/12/30 04:38:50;;;;;;;1.12;0.90;;;;;;;12.88;53.99;100550.62;144993;603;6002;-85
2021/12/30 04:41:40;;;;;;;4.10;0.90;;;;;;;12.86;53.95;100547.12;144993;619;6002;-86
2021/12/30 04:44:29;;;;;;;1.65;0.90;;;;;;;12.85;56.11;100545.37;144993;563;6002;-87
2021/12/30 04:47:51;;;;;;;;;;;;;;;;;;;;;
2021/12/30 04:51:16;;;;;;;1.45;0.82;;;;;;;12.76;54.71;100550.41;144994;594;5004;-83
2021/12/30 04:54:48;;;;;;;1.60;1.00;;;;;;;12.74;55.27;100554.72;144994;592;5002;-82
2021/12/30 06:30:41;;;;;;;2.93;1.40;;;;;;;12.77;58.42;100662.44;144994;741;5002;-85
2021/12/30 06:33:13;;;;;;;3.83;1.48;;;;;;;12.64;58.80;100658.72;144994;622;5002;-82
2021/12/30 06:35:41;;;;;;;3.33;1.73;;;;;;;12.83;58.05;100659.97;144994;591;5002;-81
2021/12/30 06:38:07;;;;;;;3.20;1.87;;;;;;;12.72;58.80;100664.09;144994;810;5002;-95
2021/12/30 06:40:47;;;;;;;4.22;2.60;;;;;;;12.97;58.53;100670.66;144994;566;5002;-84
2021/12/30 06:43:19;;;;;;;3.05;1.70;;;;;;;12.96;57.38;100679.31;144994;614;5002;-83
2021/12/30 06:45:51;;;;;;;3.37;1.60;;;;;;;12.83;57.84;100680.81;144994;670;5002;-86
2021/12/30 06:52:52;;;;;;;;;;;;;;;;;;;;;
2021/12/30 06:55:42;;;;;;;1.85;1.35;;;;;;;13.16;55.98;100694.47;144994;742;5002;-81
2021/12/30 07:02:30;;;;;;;;;;;;;;;;;;;;;
2021/12/30 07:05:38;;;;;;;2.55;1.17;;;;;;;12.83;55.97;100709.47;144994;604;5002;-85
2021/12/30 07:08:54;;;;;;;;;;;;;;;;;;;;;
2021/12/30 07:11:49;;;;;;;;;;;;;;;13.05;55.83;100721.19;144998;917;5002;-79
2021/12/30 07:15:38;;;;;;;;;;;;;;;;;;;;;
2021/12/30 07:22:17;;;;;;;;;;;;;;;;;;;;;
2021/12/30 07:25:09;;;;;;;;;;;;;;;;;;;;;
2021/12/30 07:28:38;;;;;;;;;;;;;;;;;;;;;
2021/12/30 07:31:49;;;;;;;1.73;1.10;;;;;;;13.12;52.49;100742.16;144994;619;5004;-86
2021/12/30 07:34:24;;;;;;;2.58;1.10;;;;;;;13.51;55.13;100759.47;144994;579;5002;-85
2021/12/30 07:37:21;;;;;;;2.78;1.50;;;;;;;13.74;53.53;100770.28;144994;582;5002;-86
2021/12/30 07:39:59;;;;;;;2.37;1.42;;;;;;;13.38;52.30;100758.34;144994;599;5004;-84
2021/12/30 07:42:26;;;;;;;3.87;1.30;;;;;;;13.43;53.68;100777.56;144994;567;5004;-85
2021/12/30 07:45:03;;;;;;;1.52;0.90;;;;;;;13.13;50.76;100776.06;144994;576;5004;-91
2021/12/30 07:47:35;;;;;;;3.85;1.00;;;;;;;13.23;50.63;100775.44;144994;578;5004;-86
2021/12/30 07:50:15;;;;;;;4.37;1.12;;;;;;;13.33;51.11;100793.88;144994;607;5004;-85
2021/12/30 07:53:12;;;;;;;;;;;;;;;;;;;;;
2021/12/30 08:00:56;;;;;;;2.40;1.10;;;;;;;13.14;50.72;100800.41;144993;629;5002;-90
2021/12/30 08:03:56;;;;;;;2.22;0.90;;;;;;;13.12;49.56;100816.00;144994;590;5002;-82
2021/12/30 08:07:22;;;;;;;;;;;;;;;;;;;;;
2021/12/30 08:10:58;;;;;;;;;;;;;;;;;;;;;
2021/12/30 08:16:14;;;;;;;1.12;0.60;;;;;;;13.15;47.76;100818.69;144994;608;5002;-82
2021/12/30 08:19:00;;;;;;;2.47;0.90;;;;;;;13.19;48.10;100817.91;144994;659;5002;-82
2021/12/30 08:22:06;;;;;;;1.67;1.15;;;;;;;13.46;49.29;100836.72;144994;581;5002;-81
2021/12/30 08:25:01;;;;;;;1.92;0.80;;;;;;;13.12;45.96;100844.69;144994;582;5002;-89
2021/12/30 08:32:03;;;;;;;;;;;;;;;;;;;;;
2021/12/30 08:35:07;;;;;;;2.00;0.90;;;;;;;12.82;45.81;100826.66;144994;670;5002;-84
2021/12/30 09:17:05;;;;;;;2.17;0.60;;;;;;;12.88;47.02;100848.53;144994;610;5002;-82
2021/12/30 09:27:14;;;;;;;1.95;0.98;;;;;;;13.36;47.66;100857.41;144992;590;6002;-89
2021/12/30 09:30:21;;;;;;;3.20;0.80;;;;;;;13.35;47.51;100873.88;144992;585;6002;-90
2021/12/30 09:34:01;;;;;;;;;;;;;;;;;;;;;
2021/12/30 09:37:09;;;;;;;;;;;;;;;;;;;;;
2021/12/30 09:40:25;;;;;;;1.10;0.80;;;;;;;13.20;48.83;100886.56;144992;765;6002;-88
2021/12/30 09:43:01;;;;;;;2.03;0.88;;;;;;;13.32;48.20;100891.16;144992;629;6002;-95
2021/12/30 09:45:30;;;;;;;3.35;0.90;;;;;;;13.34;48.15;100890.38;144992;585;6002;-92
2021/12/30 10:45:10;;;;;;;2.20;1.58;;;;;;;15.06;43.84;100899.50;144992;587;6002;-91
2021/12/30 10:48:00;;;;;;;2.67;1.45;;;;;;;15.07;44.31;100893.44;144992;630;6002;-90
2021/12/30 10:53:04;;;;;;;2.45;1.08;;;;;;;15.89;44.06;100899.72;144992;576;6002;-89
2021/12/30 10:55:34;;;;;;;2.12;1.12;;;;;;;15.99;42.96;100898.06;144992;595;6002;-89
2021/12/30 10:58:34;;;;;;;3.25;1.20;;;;;;;16.08;42.81;100895.53;144992;569;6002;-82
2021/12/30 11:03:34;;;;;;;1.83;1.30;;;;;;;16.08;42.57;100900.78;144992;639;6002;-86
2021/12/30 11:06:17;;;;;;;1.65;0.80;;;;;;;15.53;42.78;100911.50;144992;582;6002;-91
2021/12/30 11:08:47;;;;;;;2.25;0.90;;;;;;;15.20;43.84;100910.19;144992;588;6002;-91
2021/12/30 11:11:27;;;;;;;2.53;0.90;;;;;;;15.22;43.87;100909.34;144992;564;6002;-90
2021/12/30 11:14:19;;;;;;;2.53;1.00;;;;;;;15.41;43.26;100912.19;144991;740;6002;-90
2021/12/30 11:17:17;;;;;;;3.15;1.23;;;;;;;14.96;44.05;100922.03;144992;576;6002;-91
2021/12/30 11:40:18;;;;;;;1.92;0.95;;;;;;;14.63;46.97;100925.00;144992;563;6002;-91
2021/12/30 11:53:25;;;;;;;3.28;1.30;;;;;;;14.59;47.36;100944.06;144992;628;6002;-89
2021/12/30 11:56:18;;;;;;;2.03;1.20;;;;;;;14.79;47.32;100960.97;144992;579;6002;-92
2021/12/30 11:58:47;;;;;;;3.70;0.90;;;;;;;14.81;48.06;100950.53;144992;578;6004;-90
2021/12/30 12:01:34;;;;;;;1.42;1.10;;;;;;;14.87;47.85;100945.41;144992;587;6004;-93
2021/12/30 12:04:19;;;;;;;3.47;2.08;;;;;;;14.78;47.71;100953.09;144992;579;6002;-89
2021/12/30 12:07:11;;;;;;;4.50;1.30;;;;;;;14.57;48.71;100951.87;144992;576;6002;-89
2021/12/30 12:09:44;;;;;;;1.70;0.90;;;;;;;14.47;49.68;100939.50;144992;583;6002;-91
2021/12/30 12:12:36;;;;;;;5.77;1.50;;;;;;;14.12;51.15;100956.28;144992;583;6002;-90
2021/12/30 12:15:07;;;;;;;3.57;1.47;;;;;;;14.27;51.17;100968.75;144992;610;6004;-90
2021/12/30 12:17:41;;;;;;;2.65;1.33;;;;;;;14.15;50.25;100961.56;144992;584;6002;-90
2021/12/30 12:20:40;;;;;;;;;;;;;;;;;;;;;
2021/12/30 12:23:33;;;;;;;3.67;1.20;;;;;;;14.23;49.62;100955.63;144992;572;6004;-88
2021/12/30 12:31:12;;;;;;;3.40;1.70;;;;;;;14.25;49.66;100978.31;144991;569;6002;-90
2021/12/30 12:33:41;;;;;;;3.22;1.50;;;;;;;14.04;49.92;100978.75;144992;638;6002;-88
2021/12/30 12:36:18;;;;;;;3.10;1.50;;;;;;;14.13;50.22;100971.09;144992;567;6002;-90
2021/12/30 12:38:47;;;;;;;2.47;1.40;;;;;;;13.89;50.52;100979.34;144992;610;6002;-89
2021/12/30 12:41:33;;;;;;;1.58;1.10;;;;;;;13.76;50.82;100973.00;144992;614;6002;-88
2021/12/30 12:44:12;;;;;;;2.95;1.60;;;;;;;13.77;51.28;100974.72;144992;599;6002;-88
2021/12/30 12:46:56;;;;;;;2.58;1.50;;;;;;;13.76;51.25;100983.44;144992;588;6002;-88
2021/12/30 12:49:47;;;;;;;4.82;1.40;;;;;;;13.76;51.17;100977.31;144992;664;6002;-86
2021/12/30 12:52:14;;;;;;;3.67;1.50;;;;;;;13.58;52.18;100980.41;144992;590;6002;-86
2021/12/30 12:54:50;;;;;;;2.03;1.40;;;;;;;13.63;51.26;100981.38;144992;579;6002;-88
2021/12/30 12:57:21;;;;;;;4.03;1.37;;;;;;;13.53;51.23;100985.53;144992;625;6002;-87
2021/12/30 12:59:49;;;;;;;2.45;1.40;;;;;;;13.38;51.94;100980.88;144992;571;6002;-85
2021/12/30 13:02:17;;;;;;;3.12;1.42;;;;;;;13.45;52.18;100981.88;144992;564;6002;-86
2021/12/30 13:04:49;;;;;;;2.62;1.10;;;;;;;13.29;53.20;100983.22;144992;582;6002;-86
2021/12/30 13:07:21;;;;;;;5.22;1.73;;;;;;;13.38;53.52;100985.22;144992;583;6002;-86
2021/12/30 13:09:54;;;;;;;3.37;1.42;;;;;;;13.58;52.36;100991.75;144992;657;6002;-86
2021/12/30 13:12:21;;;;;;;2.30;1.37;;;;;;;13.45;53.92;100991.44;144992;575;6003;-85
2021/12/30 13:14:50;;;;;;;3.65;2.10;;;;;;;13.40;53.39;100981.75;144992;598;6002;-84
2021/12/30 13:17:26;;;;;;;5.15;1.80;;;;;;;13.47;53.50;100995.81;144992;621;6002;-86
2021/12/30 13:19:52;;;;;;;3.50;1.27;;;;;;;13.70;53.01;101011.13;144992;698;6003;-88
2021/12/30 13:22:25;;;;;;;3.08;1.58;;;;;;;13.78;52.15;100991.28;144992;620;6002;-88
2021/12/30 13:24:58;;;;;;;3.80;1.60;;;;;;;13.59;53.70;100997.84;144992;609;6002;-88
2021/12/30 13:27:42;;;;;;;2.70;1.58;;;;;;;13.53;53.98;101005.53;144992;676;6002;-87
2021/12/30 13:30:19;;;;;;;5.28;1.60;;;;;;;13.38;55.36;100998.25;144992;566;6002;-87
2021/12/30 13:32:49;;;;;;;3.25;1.60;;;;;;;13.38;55.17;101017.38;144992;571;6002;-87
2021/12/30 13:35:27;;;;;;;6.57;1.80;;;;;;;13.24;56.14;101019.63;144992;619;6002;-87
2021/12/30 13:38:03;;;;;;;4.30;1.60;;;;;;;13.35;55.63;101026.84;144992;606;6002;-87
2021/12/30 13:40:39;;;;;;;4.55;1.60;;;;;;;13.38;54.81;101017.38;144992;606;6002;-92
2021/12/30 13:43:12;;;;;;;5.78;2.92;;;;;;;13.23;55.07;101024.78;144992;573;6002;-87
2021/12/30 13:46:02;;;;;;;4.43;2.50;;;;;;;13.19;55.33;101033.41;144992;619;6002;-88
2021/12/30 13:48:34;;;;;;;4.93;2.22;;;;;;;13.31;54.95;101036.28;144992;587;6004;-88
2021/12/30 13:51:10;;;;;;;4.97;2.75;;;;;;;13.22;55.77;101036.94;144992;577;6004;-86
2021/12/30 13:53:39;;;;;;;6.07;2.72;;;;;;;13.29;55.04;101039.72;144992;574;6004;-86
2021/12/30 13:56:11;;;;;;;4.28;2.00;;;;;;;13.15;55.94;101047.19;144992;573;6004;-91
2021/12/30 13:58:45;;;;;;;6.47;1.80;;;;;;;13.18;55.98;101053.34;144992;635;6004;-95
2021/12/30 14:01:27;;;;;;;3.35;1.67;;;;;;;13.26;55.58;101053.53;144992;631;6004;-89
2021/12/30 14:04:17;;;;;;;6.40;2.35;;;;;;;13.22;55.85;101050.00;144992;721;6004;-90
2021/12/30 14:06:47;;;;;;;3.00;1.90;;;;;;;13.18;58.02;101061.16;144992;567;6002;-88
2021/12/30 14:09:19;;;;;;;3.47;2.00;;;;;;;13.22;58.21;101052.59;144992;582;6002;-91
2021/12/30 14:11:51;;;;;;;3.03;1.65;;;;;;;13.40;57.33;101066.94;144991;682;6002;-91
2021/12/30 14:14:27;;;;;;;3.55;1.92;;;;;;;13.52;56.64;101075.06;144992;597;6002;-89
2021/12/30 14:17:02;;;;;;;3.53;2.08;;;;;;;13.54;57.48;101082.94;144992;580;6002;-90
2021/12/30 14:19:37;;;;;;;4.28;2.33;;;;;;;13.55;57.59;101076.84;144992;656;6003;-87
2021/12/30 14:22:05;;;;;;;5.75;2.60;;;;;;;13.40;57.81;101075.66;144991;651;6002;-86
2021/12/30 14:24:33;;;;;;;6.60;2.85;;;;;;;13.62;56.74;101081.37;144992;612;6002;-88
2021/12/30 14:27:18;;;;;;;4.10;2.90;;;;;;;13.59;57.70;101083.91;144992;586;6003;-90
2021/12/30 14:29:49;;;;;;;4.05;2.60;;;;;;;13.38;59.57;101079.09;144992;593;6002;-88
2021/12/30 14:32:16;;;;;;;6.87;2.45;;;;;;;13.24;60.56;101086.53;144992;634;6002;-91
2021/12/30 14:34:50;;;;;;;3.85;2.20;;;;;;;13.24;59.40;101083.91;144992;576;6002;-89
2021/12/30 14:38:14;;;;;;;;;;;;;;;;;;;;;
2021/12/30 14:40:42;;;;;;;;;;;;;;;13.22;60.24;101083.88;144997;912;6002;-88
2021/12/30 14:43:09;;;;;;;4.70;1.90;;;;;;;13.22;59.93;101083.88;144997;595;6002;-92
2021/12/30 14:45:42;;;;;;;2.75;1.80;;;;;;;13.15;59.84;101084.56;144992;594;6002;-89
2021/12/30 14:48:10;;;;;;;4.65;1.98;;;;;;;13.09;59.78;101084.41;144992;563;6002;-88
2021/12/30 14:50:41;;;;;;;5.18;2.33;;;;;;;13.37;58.40;101083.38;144992;569;6011;-90
2021/12/30 14:53:18;;;;;;;3.95;2.12;;;;;;;13.42;58.37;101080.91;144992;589;6002;-89
2021/12/30 14:55:46;;;;;;;5.12;2.00;;;;;;;13.20;59.65;101085.56;144992;563;6002;-91
2021/12/30 14:58:15;;;;;;;4.45;2.35;;;;;;;13.30;59.38;101091.88;144992;575;6002;-89
2021/12/30 15:00:45;;;;;;;5.53;2.65;;;;;;;13.21;60.45;101095.13;144992;594;6002;-89
2021/12/30 15:03:11;;;;;;;5.82;2.28;;;;;;;13.01;61.81;101112.91;144992;600;6002;-91
2021/12/30 15:05:38;;;;;;;3.60;2.00;;;;;;;13.11;61.82;101113.09;144992;594;6002;-90
2021/12/30 15:08:06;;;;;;;4.37;1.92;;;;;;;13.09;62.64;101109.59;144992;600;6002;-92
2021/12/30 15:10:34;;;;;;;3.47;2.00;;;;;;;13.19;62.83;101119.41;144992;604;6002;-90
2021/12/30 15:13:04;;;;;;;4.47;2.17;;;;;;;13.48;61.76;101112.34;144992;605;6002;-89
2021/12/30 15:15:32;;;;;;;3.53;2.12;;;;;;;13.21;63.65;101104.69;144992;635;6002;-90
2021/12/30 15:18:00;;;;;;;3.60;2.50;;;;;;;13.41;60.75;101116.53;144992;617;6002;-91
2021/12/30 15:20:31;;;;;;;5.07;2.78;;;;;;;13.22;63.94;101130.81;144992;590;6002;-87
2021/12/30 15:22:58;;;;;;;5.45;2.37;;;;;;;13.13;64.59;101134.91;144991;594;6002;-89
2021/12/30 15:25:26;;;;;;;3.78;2.58;;;;;;;12.98;65.67;101138.87;144992;640;6002;-91
2021/12/30 15:27:56;;;;;;;2.17;1.80;;;;;;;12.92;64.30;101148.22;144992;687;6002;-88
2021/12/30 15:30:58;;;;;;;4.22;1.58;;;;;;;12.91;63.80;101147.34;144991;661;6002;-90
2021/12/30 15:33:47;;;;;;;2.00;1.50;;;;;;;12.63;63.79;101150.91;144992;625;6004;-87
2021/12/30 15:36:22;;;;;;;3.12;1.48;;;;;;;12.67;63.41;101156.25;144992;589;6004;-88
2021/12/30 15:39:32;;;;;;;2.33;1.80;;;;;;;12.70;63.81;101171.97;144992;571;6002;-83
2021/12/30 15:44:35;;;;;;;;;;;;;;;12.52;66.59;101177.53;144998;583;6002;-92
2021/12/30 15:47:15;;;;;;;3.33;2.50;;;;;;;12.64;66.40;101182.22;144998;570;6002;-89
2021/12/30 15:49:48;;;;;;;5.18;2.35;;;;;;;12.59;67.40;101190.75;144993;574;6002;-89
2021/12/30 15:52:15;;;;;;;3.35;2.60;;;;;;;12.27;69.71;101193.28;144993;834;6002;-90
2021/12/30 15:54:42;;;;;;;5.32;2.67;;;;;;;12.35;69.92;101194.38;144992;591;6002;-93
2021/12/30 15:57:09;;;;;;;4.20;2.42;;;;;;;12.38;69.40;101189.28;144993;573;6002;-90
2021/12/30 15:59:37;;;;;;;3.90;2.67;;;;;;;12.64;68.97;101187.41;144993;564;6002;-91
2021/12/30 16:02:08;;;;;;;5.43;2.65;;;;;;;12.57;68.09;101190.69;144993;793;6002;-89
2021/12/30 16:04:36;;;;;;;3.78;2.25;;;;;;;12.40;70.39;101197.13;144993;638;6002;-89
2021/12/30 16:07:05;;;;;;;6.10;3.20;;;;;;;12.48;68.88;101193.03;144993;804;6002;-90
2021/12/30 16:09:33;;;;;;;6.15;3.10;;;;;;;12.57;67.81;101189.84;144993;692;6002;-91
2021/12/30 16:12:00;;;;;;;5.68;3.75;;;;;;;12.46;70.84;101182.56;144992;613;6002;-89
2021/12/30 16:14:27;;;;;;;5.40;3.50;;;;;;;12.42;71.64;101188.50;144992;745;6002;-90
2021/12/30 16:16:58;;;;;;;3.95;3.10;;;;;;;12.40;71.67;101186.72;144992;623;6002;-90
2021/12/30 16:19:29;;;;;;;5.55;3.08;;;;;;;12.22;72.15;101195.75;144992;615;6002;-89
2021/12/30 16:21:56;;;;;;;4.45;2.78;;;;;;;12.12;72.68;101197.19;144992;629;6002;-90
2021/12/30 16:24:30;;;;;;;4.57;2.83;;;;;;;12.30;72.25;101201.19;144992;571;6002;-88
2021/12/30 16:27:07;;;;;;;6.95;3.20;;;;;;;12.26;71.66;101210.59;144993;635;6002;-83
2021/12/30 16:32:08;;;;;;;3.85;2.37;;;;;;;11.97;75.10;101226.19;144993;600;6002;-89
2021/12/30 16:34:36;;;;;;;4.35;2.50;;;;;;;11.88;75.36;101238.88;144993;592;6002;-90
2021/12/30 16:37:04;;;;;;;4.65;2.70;;;;;;;12.08;73.61;101241.28;144992;569;6002;-88
2021/12/30 16:39:30;;;;;;;5.75;3.08;;;;;;;12.01;74.66;101241.91;144993;746;6002;-90
2021/12/30 16:41:57;;;;;;;5.07;3.33;;;;;;;11.84;75.44;101247.41;144993;564;6002;-90
2021/12/30 16:44:25;;;;;;;6.55;3.90;;;;;;;11.78;75.42;101260.22;144993;587;6002;-89
2021/12/30 16:46:55;;;;;;;5.10;3.60;;;;;;;11.85;74.92;101258.69;144993;600;6002;-88
2021/12/30 16:49:22;;;;;;;5.57;3.72;;;;;;;11.72;75.16;101254.78;144993;623;6002;-90
2021/12/30 16:51:53;;;;;;;4.37;3.33;;;;;;;11.88;73.65;101267.50;144993;605;6002;-91
2021/12/30 16:54:21;;;;;;;5.00;4.07;;;;;;;11.85;74.84;101270.00;144993;600;6002;-89
2021/12/30 16:56:48;;;;;;;5.85;4.40;;;;;;;12.05;73.92;101277.59;144993;625;6002;-89
2021/12/30 16:59:16;;;;;;;4.87;3.47;;;;;;;12.07;74.58;101278.53;144993;601;6002;-90
2021/12/30 17:01:44;;;;;;;4.85;3.72;;;;;;;12.26;73.39;101278.28;144993;632;6002;-91
2021/12/30 17:04:10;;;;;;;5.53;3.58;;;;;;;12.19;73.38;101284.13;144993;573;6002;-90
2021/12/30 17:06:37;;;;;;;6.05;4.05;;;;;;;12.38;71.37;101275.19;144993;585;6002;-91
2021/12/30 17:09:04;;;;;;;6.78;4.60;;;;;;;12.56;70.29;101284.41;144993;563;6002;-91
2021/12/30 17:11:31;;;;;;;8.80;5.00;;;;;;;12.55;72.24;101291.34;144993;605;6002;-91
2021/12/30 17:13:58;;;;;;;6.37;4.87;;;;;;;12.59;72.48;101298.41;144993;633;6002;-89
2021/12/30 17:16:29;;;;;;;7.22;5.15;;;;;;;12.89;69.08;101297.56;144993;623;6002;-84
2021/12/30 17:19:08;;;;;;;5.87;5.05;;;;;;;13.02;70.23;101309.22;144994;659;5002;-92
2021/12/30 17:21:45;;;;;;;5.30;4.28;;;;;;;13.24;68.17;101302.91;144994;622;5002;-92
2021/12/30 17:24:11;;;;;;;6.72;4.10;;;;;;;13.02;69.21;101306.62;144994;594;5002;-91
2021/12/30 17:26:39;;;;;;;3.83;3.30;;;;;;;13.27;67.58;101315.13;144994;610;5002;-89
2021/12/30 17:29:07;;;;;;;3.62;2.60;;;;;;;12.93;68.53;101311.56;144994;575;5002;-90
2021/12/30 17:31:35;;;;;;;4.05;2.95;;;;;;;12.97;67.91;101309.09;144994;894;5002;-89
2021/12/30 17:34:04;;;;;;;2.97;2.47;;;;;;;13.21;66.82;101331.50;144994;791;5002;-88
2021/12/30 17:36:31;;;;;;;4.05;2.85;;;;;;;12.98;67.56;101333.41;144994;654;5002;-87
2021/12/30 17:39:17;;;;;;;3.47;2.55;;;;;;;12.70;69.01;101327.38;144994;570;5002;-88
2021/12/30 17:42:06;;;;;;;4.15;2.12;;;;;;;13.00;67.33;101327.44;144994;723;5002;-81
2021/12/30 17:44:42;;;;;;;3.83;3.22;;;;;;;13.11;67.42;101332.06;144994;638;5002;-87
2021/12/30 17:47:10;;;;;;;5.82;3.33;;;;;;;13.16;67.53;101333.09;144994;573;5002;-90
2021/12/30 17:49:36;;;;;;;6.40;3.92;;;;;;;12.94;68.95;101332.44;144994;567;5002;-90
2021/12/30 17:52:06;;;;;;;5.93;4.37;;;;;;;13.27;66.48;101347.31;144994;819;5002;-91
2021/12/30 17:54:35;;;;;;;4.97;4.05;;;;;;;13.31;66.95;101356.09;144994;679;5002;-90
2021/12/30 17:57:03;;;;;;;4.15;3.53;;;;;;;13.19;68.07;101357.53;144994;621;5002;-88
2021/12/30 17:59:32;;;;;;;4.05;3.50;;;;;;;13.11;68.02;101361.63;144994;690;5002;-90
2021/12/30 18:02:03;;;;;;;3.28;2.83;;;;;;;13.10;67.00;101361.59;144994;814;5002;-89
2021/12/30 18:04:36;;;;;;;4.75;3.60;;;;;;;12.93;68.87;101359.34;144994;585;5002;-88
2021/12/30 18:07:06;;;;;;;5.70;4.20;;;;;;;12.90;67.96;101351.47;144994;612;5002;-91
2021/12/30 18:09:33;;;;;;;5.20;4.30;;;;;;;12.63;71.32;101365.41;144994;701;5002;-89
2021/12/30 18:12:00;;;;;;;5.87;4.07;;;;;;;12.65;69.25;101363.72;144994;704;5002;-87
2021/12/30 18:14:51;;;;;;;;;;;;;;;;;;;;;
2021/12/30 18:17:18;;;;;;;4.90;4.00;;;;;;;12.59;70.07;101376.53;144994;618;5004;-87
2021/12/30 18:19:44;;;;;;;4.97;3.15;;;;;;;12.33;72.30;101384.38;144994;569;5004;-89
2021/12/30 18:22:12;;;;;;;4.50;2.70;;;;;;;12.14;72.37;101379.41;144993;590;5004;-89
2021/12/30 18:24:40;;;;;;;3.12;2.25;;;;;;;11.81;73.28;101395.56;144994;569;5002;-89
2021/12/30 18:27:07;;;;;;;3.40;2.30;;;;;;;11.82;73.80;101397.34;144994;583;5002;-87
2021/12/30 18:29:33;;;;;;;3.00;2.10;;;;;;;11.47;74.60;101409.97;144994;563;5002;-89
2021/12/30 18:32:03;;;;;;;3.55;2.05;;;;;;;11.48;74.48;101411.72;144994;602;5002;-86
2021/12/30 18:34:31;;;;;;;2.87;2.08;;;;;;;11.44;74.52;101407.25;144994;556;5002;-89
2021/12/30 18:36:59;;;;;;;3.05;2.10;;;;;;;11.46;74.39;101402.13;144994;642;5002;-88
2021/12/30 18:39:29;;;;;;;2.20;1.77;;;;;;;11.56;73.77;101402.47;144994;595;5002;-90
2021/12/30 18:41:58;;;;;;;2.45;1.90;;;;;;;11.41;74.02;101405.41;144994;588;5002;-91
2021/12/30 18:44:29;;;;;;;2.33;1.73;;;;;;;11.44;74.55;101408.12;144994;595;5002;-90
2021/12/30 18:47:01;;;;;;;2.30;2.10;;;;;;;11.49;74.25;101399.63;144994;634;5002;-85
2021/12/30 18:49:45;;;;;;;2.30;2.00;;;;;;;11.58;73.54;101415.53;144994;596;5002;-89
2021/12/30 18:52:18;;;;;;;2.90;2.35;;;;;;;11.84;71.64;101431.22;144994;564;5002;-89
2021/12/30 18:54:46;;;;;;;3.22;2.60;;;;;;;12.00;71.00;101435.31;144994;579;5002;-91
2021/12/30 18:57:15;;;;;;;3.05;2.45;;;;;;;11.98;71.83;101448.25;144994;576;5002;-91
2021/12/30 18:59:49;;;;;;;3.95;2.75;;;;;;;11.97;71.53;101462.97;144994;628;5002;-92
2021/12/30 19:02:18;;;;;;;4.93;2.95;;;;;;;12.01;71.84;101477.00;144994;597;5002;-91
2021/12/30 19:04:45;;;;;;;4.20;3.00;;;;;;;11.86;71.98;101468.59;144994;644;5002;-89
2021/12/30 19:07:14;;;;;;;3.75;2.55;;;;;;;11.88;71.60;101472.12;144994;582;5002;-91
2021/12/30 19:09:41;;;;;;;3.87;2.90;;;;;;;11.51;72.54;101466.44;144994;591;5002;-92
2021/12/30 19:12:12;;;;;;;4.93;2.80;;;;;;;11.48;72.71;101461.13;144994;564;5002;-92
2021/12/30 19:14:41;;;;;;;2.60;2.30;;;;;;;12.08;70.11;101467.69;144993;629;5002;-90
2021/12/30 19:17:10;;;;;;;4.25;2.37;;;;;;;12.01;69.52;101481.28;144994;569;5002;-90
2021/12/30 19:19:38;;;;;;;3.37;2.28;;;;;;;12.28;68.33;101484.87;144994;595;5002;-92
2021/12/30 19:22:53;;;;;;;3.35;2.40;;;;;;;12.28;69.22;101510.00;144994;645;5002;-93
2021/12/30 19:27:49;;;;;;;5.03;3.83;;;;;;;12.40;68.34;101507.84;144993;563;5002;-90
2021/12/30 19:30:19;;;;;;;5.57;4.70;;;;;;;12.75;67.15;101510.78;144994;633;5002;-92
2021/12/30 19:32:48;;;;;;;6.25;4.68;;;;;;;12.26;69.20;101491.72;144994;668;5002;-91
2021/12/30 19:35:16;;;;;;;5.47;4.10;;;;;;;12.25;69.40;101507.31;144993;590;5002;-91
2021/12/30 19:37:50;;;;;;;6.37;4.70;;;;;;;12.13;69.19;101512.97;144994;626;5002;-88
2021/12/30 19:40:27;;;;;;;6.22;4.60;;;;;;;11.84;70.09;101501.47;144994;592;5002;-90
2021/12/30 19:43:03;;;;;;;6.20;4.85;;;;;;;11.72;68.35;101494.09;144994;641;5002;-90
2021/12/30 19:45:33;;;;;;;6.37;4.50;;;;;;;11.85;68.96;101488.53;144993;610;5002;-92
2021/12/30 19:48:04;;;;;;;6.30;4.10;;;;;;;12.01;66.81;101490.00;144994;590;5002;-91
2021/12/30 19:50:44;;;;;;;6.25;3.45;;;;;;;11.79;67.13;101493.50;144994;575;5002;-92
2021/12/30 19:53:19;;;;;;;3.80;2.72;;;;;;;11.86;66.96;101516.28;144994;569;5002;-92
2021/12/30 20:01:02;;;;;;;4.97;3.65;;;;;;;12.04;65.56;101523.94;144994;712;5002;-86
2021/12/30 20:03:43;;;;;;;5.18;4.32;;;;;;;12.50;65.46;101522.06;144994;602;5002;-87
2021/12/30 20:06:12;;;;;;;4.15;2.90;;;;;;;12.15;64.59;101519.09;144994;600;5002;-90
2021/12/30 20:08:40;;;;;;;7.37;3.30;;;;;;;12.04;64.86;101525.63;144994;635;5002;-90
2021/12/30 20:11:07;;;;;;;3.83;3.10;;;;;;;12.28;64.98;101516.13;144994;582;5002;-89
2021/12/30 20:13:33;;;;;;;5.87;3.03;;;;;;;12.43;64.37;101515.78;144994;612;5002;-90
2021/12/30 20:16:00;;;;;;;5.93;3.33;;;;;;;12.63;64.34;101515.56;144994;564;5002;-91
2021/12/30 20:18:27;;;;;;;4.25;3.53;;;;;;;12.54;64.45;101510.94;144994;644;5002;-86
2021/12/30 20:20:57;;;;;;;7.18;3.87;;;;;;;12.59;64.24;101518.91;144994;594;5002;-88
2021/12/30 20:23:24;;;;;;;6.97;3.42;;;;;;;12.41;62.63;101503.50;144994;593;5002;-90
2021/12/30 20:25:51;;;;;;;5.30;3.50;;;;;;;12.15;63.94;101513.91;144994;598;5002;-86
2021/12/30 20:28:17;;;;;;;4.82;2.75;;;;;;;12.10;63.23;101503.31;144994;644;5002;-87
2021/12/30 20:30:46;;;;;;;4.87;3.08;;;;;;;12.08;63.34;101501.50;144994;688;5002;-91
2021/12/30 20:33:14;;;;;;;3.75;2.90;;;;;;;12.21;63.13;101536.66;144994;564;5002;-91
2021/12/30 20:35:46;;;;;;;3.83;2.70;;;;;;;12.23;63.37;101555.81;144994;618;5002;-90
2021/12/30 20:38:25;;;;;;;4.45;2.37;;;;;;;12.13;63.03;101567.62;144994;606;5002;-86